Time;durP1;ratioP1;P1;durP2;ratioP2;P2;SDS_P1;SDS_P2;PMS_P1;PMS_P2;Temp;Humidity;BMP_temperature;BMP_pressure;BME280_temperature;BME280_humidity;BME280_pressure;Samples;Min_cycle;Max_cycle;Signal;HPM_P1;HPM_P2
2022/02/10 11:45:35;;;;;;;3.95;1.42;;;21.00;40.50;;;;;;5168145;27;20054;-79
2022/02/10 13:29:56;;;;;;;5.63;1.92;;;21.30;40.50;;;;;;5072134;28;20060;-76
2022/02/10 14:25:42;;;;;;;11.40;3.05;;;21.20;40.80;;;;;;5136448;27;20069;-79
2022/02/10 14:28:09;;;;;;;20.73;2.40;;;21.30;41.00;;;;;;5154791;27;20066;-80
2022/02/10 14:30:36;;;;;;;12.45;2.58;;;21.30;41.10;;;;;;5136259;27;20055;-80
2022/02/10 14:33:03;;;;;;;10.02;2.58;;;21.30;40.90;;;;;;5136696;27;20910;-79
2022/02/10 14:35:35;;;;;;;7.90;2.35;;;21.30;40.90;;;;;;5136163;27;20057;-82
2022/02/10 14:38:20;;;;;;;12.00;2.38;;;21.30;41.20;;;;;;5154903;27;20054;-81
2022/02/10 14:41:10;;;;;;;8.60;2.60;;;21.30;40.90;;;;;;5154715;27;20074;-79
2022/02/10 15:16:38;;;;;;;8.80;2.35;;;20.90;40.80;;;;;;5153338;27;20062;-77
2022/02/10 15:35:30;;;;;;;3.78;1.73;;;21.00;40.60;;;;;;5070003;28;20047;-77
2022/02/10 15:36:34;;;;;;;5.13;1.77;;;21.00;40.60;;;;;;5133052;27;20495;-78
2022/02/10 15:55:23;;;;;;;8.05;2.33;;;21.00;40.80;;;;;;5153626;27;20061;-78
2022/02/10 16:12:36;;;;;;;11.25;1.98;;;21.00;40.70;;;;;;5138543;27;20046;-80
2022/02/10 16:14:50;;;;;;;6.82;2.35;;;21.00;40.70;;;;;;5157038;27;20486;-76
2022/02/10 16:17:11;;;;;;;7.35;2.13;;;21.00;40.70;;;;;;5156724;27;20075;-77
2022/02/10 16:19:37;;;;;;;7.18;1.90;;;21.00;40.70;;;;;;5136255;27;20047;-78
2022/02/10 16:22:11;;;;;;;5.07;1.67;;;21.00;40.60;;;;;;5156864;27;20061;-78
2022/02/10 16:24:48;;;;;;;6.47;2.08;;;21.00;40.50;;;;;;5157138;27;20043;-74
2022/02/10 16:27:24;;;;;;;5.90;1.77;;;21.00;40.70;;;;;;5154703;27;20054;-74
2022/02/10 16:29:59;;;;;;;6.70;2.13;;;21.10;40.60;;;;;;5156835;27;20084;-75
2022/02/10 16:32:25;;;;;;;6.22;2.00;;;21.00;40.40;;;;;;5153098;27;20058;-74
2022/02/10 16:34:51;;;;;;;4.78;1.75;;;21.00;40.30;;;;;;5156670;27;20490;-74
2022/02/10 16:37:17;;;;;;;11.68;1.92;;;21.10;40.40;;;;;;5137778;27;20105;-75
2022/02/10 16:39:43;;;;;;;6.10;1.77;;;21.00;40.50;;;;;;5156567;27;20102;-74
2022/02/10 16:42:10;;;;;;;6.43;1.92;;;21.00;40.50;;;;;;5120676;27;20452;-74
2022/02/10 16:44:37;;;;;;;3.22;1.80;;;21.00;40.60;;;;;;5156737;27;20062;-75
2022/02/10 16:47:03;;;;;;;8.40;1.92;;;21.10;40.80;;;;;;5156550;27;20081;-76
2022/02/10 16:49:29;;;;;;;6.95;2.05;;;21.10;40.60;;;;;;5137945;27;20070;-76
2022/02/10 16:51:55;;;;;;;5.93;1.60;;;21.10;40.30;;;;;;5156496;27;20447;-74
2022/02/10 16:54:29;;;;;;;5.00;1.50;;;21.10;40.50;;;;;;5156669;27;20063;-74
2022/02/10 16:59:32;;;;;;;8.63;2.00;;;21.30;40.20;;;;;;5137463;27;20409;-74
2022/02/10 17:16:36;;;;;;;5.22;1.63;;;21.30;40.20;;;;;;5155974;27;20125;-73
2022/02/10 17:29:24;;;;;;;7.25;1.67;;;21.20;40.10;;;;;;5155679;27;20055;-73
2022/02/10 17:32:09;;;;;;;6.13;1.73;;;21.20;40.10;;;;;;5156162;27;20423;-73
2022/02/10 17:43:47;;;;;;;2.80;1.20;;;21.20;40.20;;;;;;5095409;27;20046;-73
2022/02/10 17:46:04;;;;;;;5.25;1.50;;;21.20;40.20;;;;;;5153967;27;20513;-73
2022/02/10 17:51:43;;;;;;;6.70;1.65;;;21.20;40.30;;;;;;5136847;27;20050;-73
2022/02/10 17:54:11;;;;;;;2.05;1.35;;;21.10;40.20;;;;;;5117411;27;20382;-73
2022/02/10 17:56:38;;;;;;;5.40;1.40;;;21.10;40.20;;;;;;5155706;27;20103;-74
2022/02/10 17:59:04;;;;;;;5.50;1.58;;;21.10;40.20;;;;;;5155179;27;20035;-74
2022/02/10 18:01:31;;;;;;;3.15;1.58;;;21.10;40.20;;;;;;5137013;27;20050;-74
2022/02/10 18:03:56;;;;;;;3.30;1.50;;;21.10;40.20;;;;;;5119717;27;20393;-73
2022/02/10 18:06:28;;;;;;;3.05;1.48;;;21.10;40.20;;;;;;5136649;27;20046;-73
2022/02/10 18:14:31;;;;;;;5.50;1.35;;;21.10;40.20;;;;;;5155184;27;20055;-73
2022/02/10 18:17:05;;;;;;;1.92;1.35;;;21.10;40.20;;;;;;5135565;27;20410;-73
2022/02/10 18:19:37;;;;;;;3.50;1.38;;;21.10;40.30;;;;;;5135596;27;20078;-73
2022/02/10 18:38:26;;;;;;;3.63;1.15;;;21.00;40.40;;;;;;5154506;27;20050;-73
2022/02/10 19:01:33;;;;;;;2.50;0.95;;;21.00;40.30;;;;;;5154587;27;20057;-73
2022/02/10 19:01:34;;;;;;;4.20;1.90;;;20.90;40.30;;;;;;5154734;27;20413;-73
2022/02/10 19:08:22;;;;;;;2.50;1.10;;;21.00;40.30;;;;;;5154640;27;20394;-73
2022/02/10 19:10:54;;;;;;;3.22;1.67;;;20.90;40.20;;;;;;5154447;27;20149;-73
2022/02/10 19:13:22;;;;;;;2.10;1.48;;;21.00;40.30;;;;;;5134636;27;20051;-73
2022/02/10 19:15:50;;;;;;;3.53;1.38;;;21.00;40.30;;;;;;5135666;27;20062;-73
2022/02/10 19:18:17;;;;;;;4.38;1.45;;;21.00;40.30;;;;;;5150303;27;20054;-73
2022/02/10 19:20:43;;;;;;;5.07;1.40;;;20.90;40.30;;;;;;5154166;27;20046;-73
2022/02/10 19:23:10;;;;;;;3.45;1.10;;;20.90;40.30;;;;;;5136068;27;20046;-73
2022/02/10 19:25:38;;;;;;;2.90;1.17;;;20.90;40.30;;;;;;5154176;27;20046;-73
2022/02/10 19:28:07;;;;;;;2.00;1.30;;;20.90;40.40;;;;;;5154117;27;20522;-73
2022/02/10 19:30:36;;;;;;;2.50;1.10;;;20.90;40.40;;;;;;5133610;27;20471;-73
2022/02/10 19:33:11;;;;;;;2.20;1.30;;;20.90;40.40;;;;;;5154048;27;20057;-73
2022/02/10 19:35:43;;;;;;;1.73;1.27;;;20.80;40.40;;;;;;5154208;27;20051;-73
2022/02/10 19:38:14;;;;;;;2.53;1.25;;;20.80;40.40;;;;;;5153978;27;20077;-73
2022/02/10 19:40:40;;;;;;;2.03;0.93;;;20.80;40.40;;;;;;5138186;27;20187;-73
2022/02/10 19:43:06;;;;;;;5.13;1.00;;;20.80;40.40;;;;;;5157684;27;20107;-73
2022/02/10 19:45:33;;;;;;;2.67;1.48;;;20.80;40.50;;;;;;5139130;27;20057;-73
2022/02/10 19:47:59;;;;;;;4.30;1.30;;;20.80;40.50;;;;;;5157575;27;20054;-73
2022/02/10 19:50:27;;;;;;;1.98;1.02;;;20.80;40.50;;;;;;5157291;27;20054;-73
2022/02/10 19:52:57;;;;;;;3.63;1.38;;;20.70;40.50;;;;;;5137400;27;20062;-73
2022/02/10 19:55:24;;;;;;;4.45;1.30;;;20.70;40.50;;;;;;5157382;27;20050;-73
2022/02/10 19:58:02;;;;;;;2.25;1.10;;;20.70;40.50;;;;;;5157268;27;20050;-73
2022/02/10 20:00:35;;;;;;;3.22;1.00;;;20.70;40.50;;;;;;5157182;27;20058;-73
2022/02/10 20:03:08;;;;;;;1.58;1.10;;;20.70;40.60;;;;;;5157364;27;20413;-73
2022/02/10 20:05:34;;;;;;;5.05;1.20;;;20.70;40.60;;;;;;5157292;27;20087;-73
2022/02/10 20:08:00;;;;;;;2.58;1.52;;;20.70;40.60;;;;;;5157141;27;20043;-73
2022/02/10 20:10:25;;;;;;;1.98;1.08;;;20.70;40.60;;;;;;5157029;27;20110;-73
2022/02/10 20:12:51;;;;;;;2.63;1.15;;;20.70;40.60;;;;;;5157221;27;20051;-73
2022/02/10 20:15:21;;;;;;;2.35;1.08;;;20.70;40.60;;;;;;5157610;27;20107;-73
2022/02/10 20:17:47;;;;;;;2.22;1.23;;;20.60;40.60;;;;;;5137934;27;20047;-73
2022/02/10 20:20:13;;;;;;;2.67;1.42;;;20.60;40.60;;;;;;5157027;27;20053;-73
2022/02/10 20:22:39;;;;;;;2.47;1.27;;;20.70;40.60;;;;;;5121226;27;20046;-73
2022/02/10 20:25:07;;;;;;;1.92;1.15;;;20.60;40.60;;;;;;5156942;27;20043;-73
2022/02/10 20:27:33;;;;;;;2.35;1.17;;;20.70;40.60;;;;;;5138004;27;20387;-73
2022/02/10 20:29:59;;;;;;;2.05;0.98;;;20.70;40.60;;;;;;5156953;27;20054;-73
2022/02/10 20:32:25;;;;;;;1.00;0.82;;;20.60;40.50;;;;;;5156888;27;20106;-73
2022/02/10 20:34:50;;;;;;;2.58;0.95;;;20.70;40.50;;;;;;5156830;27;20055;-73
2022/02/10 20:37:16;;;;;;;1.52;0.95;;;20.60;40.50;;;;;;5157088;27;20486;-73
2022/02/10 20:39:41;;;;;;;3.83;1.00;;;20.70;40.50;;;;;;5137949;27;20046;-74
2022/02/10 20:42:14;;;;;;;2.15;1.20;;;20.70;40.50;;;;;;5138276;27;20042;-73
2022/02/10 20:44:42;;;;;;;1.83;1.00;;;20.60;40.50;;;;;;5156745;27;20054;-73
2022/02/10 20:47:08;;;;;;;2.55;1.20;;;20.70;40.50;;;;;;5156600;27;20070;-73
2022/02/10 20:49:34;;;;;;;2.13;1.35;;;20.60;40.50;;;;;;5137956;27;20051;-73
2022/02/10 20:51:59;;;;;;;3.08;1.25;;;20.70;40.50;;;;;;5156163;27;20102;-73
2022/02/10 20:54:28;;;;;;;3.22;1.00;;;20.60;40.50;;;;;;5156545;27;20490;-73
2022/02/10 20:56:54;;;;;;;1.73;1.00;;;20.70;40.50;;;;;;5137122;27;20047;-73
2022/02/10 20:59:32;;;;;;;1.52;1.10;;;20.60;40.50;;;;;;5137538;27;20047;-73
2022/02/10 21:02:07;;;;;;;1.67;1.08;;;20.60;40.50;;;;;;5156369;27;20159;-73
2022/02/10 21:04:36;;;;;;;1.10;0.90;;;20.60;40.50;;;;;;5156506;27;20061;-73
2022/02/10 21:07:11;;;;;;;3.15;1.42;;;20.60;40.50;;;;;;5156364;27;20059;-73
2022/02/10 21:09:47;;;;;;;2.92;0.90;;;20.60;40.50;;;;;;5138211;27;20402;-73
2022/02/10 21:12:13;;;;;;;1.50;0.90;;;20.60;40.50;;;;;;5156610;27;20133;-74
2022/02/10 21:14:39;;;;;;;1.75;0.95;;;20.60;40.50;;;;;;5156245;27;20443;-73
2022/02/10 21:17:10;;;;;;;2.05;1.10;;;20.60;40.50;;;;;;5120420;27;20050;-73
2022/02/10 21:19:37;;;;;;;;;;;20.60;40.50;;;;;;5153586;27;20055;-73
2022/02/10 21:22:10;;;;;;;1.40;1.00;;;20.60;40.50;;;;;;5156043;27;19922;-74
2022/02/10 21:24:42;;;;;;;1.60;1.15;;;20.60;40.40;;;;;;5137643;27;20053;-73
2022/02/10 21:27:26;;;;;;;;;;;20.60;40.40;;;;;;5138021;27;20046;-73
2022/02/10 21:30:05;;;;;;;1.30;0.88;;;20.60;40.40;;;;;;5156344;27;20358;-73
2022/02/10 21:32:33;;;;;;;3.63;1.13;;;20.60;40.40;;;;;;5155986;27;20058;-73
2022/02/10 21:35:13;;;;;;;3.05;1.25;;;20.60;40.50;;;;;;5137509;27;20085;-74
2022/02/10 21:37:56;;;;;;;1.52;0.93;;;20.60;40.40;;;;;;5155724;27;20042;-73
2022/02/10 21:40:30;;;;;;;1.65;1.17;;;20.60;40.50;;;;;;5152340;27;20035;-73
2022/02/10 22:05:40;;;;;;;1.88;1.00;;;20.60;40.40;;;;;;5155383;27;20046;-73
2022/02/10 22:10:32;;;;;;;2.53;1.02;;;20.60;40.50;;;;;;5155608;27;20039;-73
2022/02/10 22:18:44;;;;;;;2.08;1.25;;;20.60;40.50;;;;;;5155010;27;20039;-73
2022/02/10 22:21:13;;;;;;;1.60;1.13;;;20.60;40.40;;;;;;5151303;27;20046;-73
2022/02/10 22:23:42;;;;;;;1.75;1.00;;;20.60;40.40;;;;;;5155048;27;20054;-73
2022/02/10 22:26:17;;;;;;;1.33;1.08;;;20.60;40.40;;;;;;5155027;27;20050;-73
2022/02/10 22:29:04;;;;;;;1.63;1.20;;;20.60;40.50;;;;;;5155234;27;20035;-74
2022/02/10 22:31:41;;;;;;;1.63;1.13;;;20.60;40.40;;;;;;5152215;27;20386;-73
2022/02/10 22:36:41;;;;;;;0.95;0.90;;;20.60;40.40;;;;;;5154842;27;20050;-73
2022/02/10 22:39:07;;;;;;;1.65;0.90;;;20.60;40.40;;;;;;5135677;27;20058;-73
2022/02/10 22:41:34;;;;;;;1.55;0.80;;;20.60;40.40;;;;;;5154808;27;20397;-74
2022/02/10 22:44:03;;;;;;;1.52;0.80;;;20.60;40.40;;;;;;5134447;27;20507;-73
2022/02/10 22:46:30;;;;;;;1.10;0.80;;;20.60;40.40;;;;;;5136018;27;20046;-73
2022/02/10 22:48:55;;;;;;;2.20;1.02;;;20.60;40.40;;;;;;5154527;27;20080;-73
2022/02/10 22:51:23;;;;;;;1.90;0.98;;;20.60;40.40;;;;;;5154584;27;20046;-73
2022/02/10 22:53:49;;;;;;;1.10;0.88;;;20.60;40.40;;;;;;5154563;27;20134;-73
2022/02/10 22:56:18;;;;;;;1.80;1.10;;;20.60;40.40;;;;;;5154607;27;20450;-73
2022/02/10 22:58:44;;;;;;;1.38;1.00;;;20.60;40.30;;;;;;5154356;27;20053;-73
2022/02/10 23:01:13;;;;;;;1.88;1.08;;;20.60;40.30;;;;;;5135883;27;20149;-73
2022/02/10 23:03:41;;;;;;;1.02;0.77;;;20.60;40.30;;;;;;5154482;27;20501;-73
2022/02/10 23:06:09;;;;;;;1.80;1.08;;;20.60;40.30;;;;;;5135814;27;20161;-73
2022/02/10 23:08:35;;;;;;;2.10;1.00;;;20.60;40.30;;;;;;5154484;27;20055;-73
2022/02/10 23:11:01;;;;;;;1.67;1.10;;;20.60;40.30;;;;;;5154683;27;20038;-73
2022/02/10 23:13:30;;;;;;;1.77;0.80;;;20.60;40.30;;;;;;5135494;27;20051;-73
2022/02/10 23:15:58;;;;;;;2.25;1.08;;;20.60;40.30;;;;;;5154298;27;20089;-73
2022/02/10 23:18:26;;;;;;;1.90;1.02;;;20.60;40.30;;;;;;5135453;27;20055;-73
2022/02/10 23:20:53;;;;;;;1.17;1.00;;;20.60;40.30;;;;;;5135760;27;20055;-73
2022/02/10 23:23:21;;;;;;;1.90;1.10;;;20.60;40.30;;;;;;5135588;27;20107;-73
2022/02/10 23:25:49;;;;;;;1.20;0.80;;;20.60;40.30;;;;;;5154203;27;20042;-73
2022/02/10 23:28:28;;;;;;;3.55;1.00;;;20.60;40.30;;;;;;5135601;27;20050;-73
2022/02/10 23:30:54;;;;;;;1.20;0.98;;;20.60;40.30;;;;;;5134701;27;20051;-73
2022/02/10 23:33:26;;;;;;;1.13;0.73;;;20.60;40.30;;;;;;5154075;27;20082;-73
2022/02/10 23:38:45;;;;;;;2.88;1.08;;;20.60;40.30;;;;;;5154055;27;20046;-74
2022/02/10 23:43:46;;;;;;;1.42;1.00;;;20.60;40.30;;;;;;5135923;27;20058;-73
2022/02/10 23:46:12;;;;;;;1.38;0.93;;;20.60;40.30;;;;;;5153870;27;20051;-73
2022/02/10 23:48:38;;;;;;;1.90;1.02;;;20.60;40.20;;;;;;5153967;27;20046;-73
2022/02/10 23:51:04;;;;;;;1.33;0.90;;;20.60;40.30;;;;;;5153825;27;20051;-73
2022/02/10 23:53:31;;;;;;;1.20;0.73;;;20.60;40.30;;;;;;5154167;27;20058;-73
2022/02/10 23:55:59;;;;;;;1.67;0.90;;;20.60;40.30;;;;;;5154148;27;20043;-73
2022/02/10 23:59:12;;;;;;;1.88;0.80;;;20.60;40.30;;;;;;5153767;27;20486;-73
